Time;durP1;ratioP1;P1;durP2;ratioP2;P2;SDS_P1;SDS_P2;PMS_P1;PMS_P2;Temp;Humidity;BMP_temperature;BMP_pressure;BME280_temperature;BME280_humidity;BME280_pressure;Samples;Min_cycle;Max_cycle;Signal;HPM_P1;HPM_P2
2021/05/07 00:00:57;;;;;;;15.90;14.43;;;23.10;82.70;;;;;;3566343;40;20319;-58
2021/05/07 00:03:23;;;;;;;16.73;14.30;;;23.10;82.60;;;;;;3566925;40;20635;-58
2021/05/07 00:05:55;;;;;;;14.47;13.07;;;23.10;82.60;;;;;;3557082;40;20476;-58
2021/05/07 00:08:25;;;;;;;15.33;13.50;;;23.10;82.50;;;;;;3566048;40;20481;-58
2021/05/07 00:10:52;;;;;;;14.20;12.70;;;23.10;82.40;;;;;;3566365;40;20478;-57
2021/05/07 00:13:20;;;;;;;16.97;14.57;;;23.10;82.40;;;;;;3566396;40;20503;-59
2021/05/07 00:15:48;;;;;;;13.53;12.33;;;23.20;82.60;;;;;;3566448;40;20485;-57
2021/05/07 00:18:16;;;;;;;14.30;12.73;;;23.20;82.60;;;;;;3565175;40;20478;-59
2021/05/07 00:20:42;;;;;;;15.73;14.00;;;23.10;82.40;;;;;;3565355;40;20491;-58
2021/05/07 00:23:09;;;;;;;14.53;13.00;;;23.20;82.50;;;;;;3555826;40;20492;-56
2021/05/07 00:25:36;;;;;;;15.53;14.13;;;23.20;82.40;;;;;;3565615;40;20496;-58
2021/05/07 00:28:13;;;;;;;14.17;12.87;;;23.20;82.40;;;;;;3566791;40;20942;-58
2021/05/07 00:30:41;;;;;;;14.37;12.97;;;23.20;82.30;;;;;;3565681;40;20480;-58
2021/05/07 00:33:09;;;;;;;13.83;12.33;;;23.20;82.30;;;;;;3565644;40;20479;-59
2021/05/07 00:35:37;;;;;;;14.18;12.77;;;23.20;82.30;;;;;;3565319;40;20482;-59
2021/05/07 00:38:04;;;;;;;15.73;14.20;;;23.20;82.30;;;;;;3565865;40;20669;-59
2021/05/07 00:40:31;;;;;;;14.47;12.97;;;23.20;82.30;;;;;;3566916;40;20751;-58
2021/05/07 00:43:00;;;;;;;14.47;13.00;;;23.20;82.30;;;;;;3565918;40;20499;-59
2021/05/07 00:45:29;;;;;;;14.70;13.30;;;23.20;82.30;;;;;;3557428;40;20487;-58
2021/05/07 00:47:58;;;;;;;13.77;12.47;;;23.20;82.20;;;;;;3565441;40;20484;-59
2021/05/07 00:50:28;;;;;;;14.40;13.07;;;23.20;82.20;;;;;;3557384;40;20483;-57
2021/05/07 00:52:58;;;;;;;14.35;12.95;;;23.20;82.20;;;;;;3565375;40;20498;-57
2021/05/07 00:55:26;;;;;;;14.67;13.23;;;23.20;82.10;;;;;;3566700;40;20269;-58
2021/05/07 00:57:53;;;;;;;15.40;12.87;;;23.20;82.10;;;;;;3567480;40;20477;-54
2021/05/07 01:00:22;;;;;;;13.33;12.03;;;23.20;82.10;;;;;;3566935;40;20480;-58
2021/05/07 01:02:49;;;;;;;14.00;12.63;;;23.20;82.00;;;;;;3567452;40;20557;-55
2021/05/07 01:05:18;;;;;;;13.93;12.60;;;23.20;81.90;;;;;;3567039;40;20581;-58
2021/05/07 01:07:46;;;;;;;14.37;12.97;;;23.20;82.00;;;;;;3557633;40;20978;-59
2021/05/07 01:10:16;;;;;;;13.90;12.60;;;23.20;81.90;;;;;;3556744;40;20494;-59
2021/05/07 01:12:43;;;;;;;15.00;12.80;;;23.20;81.90;;;;;;3566521;40;20495;-58
2021/05/07 01:15:13;;;;;;;14.83;12.30;;;23.30;81.90;;;;;;3558048;40;20475;-57
2021/05/07 01:17:44;;;;;;;13.33;12.23;;;23.20;81.90;;;;;;3549749;40;20499;-57
2021/05/07 01:20:16;;;;;;;13.03;11.83;;;23.20;81.80;;;;;;3566677;40;20472;-59
2021/05/07 01:22:47;;;;;;;12.50;11.50;;;23.20;81.80;;;;;;3557864;40;20503;-56
2021/05/07 01:25:15;;;;;;;13.03;11.70;;;23.30;81.90;;;;;;3567592;40;20565;-56
2021/05/07 01:27:45;;;;;;;13.90;12.60;;;23.30;81.80;;;;;;3566413;40;20487;-57
2021/05/07 01:30:15;;;;;;;11.83;10.73;;;23.30;81.80;;;;;;3566395;40;20713;-58
2021/05/07 01:32:42;;;;;;;13.90;12.70;;;23.30;81.80;;;;;;3566649;40;20484;-57
2021/05/07 01:35:13;;;;;;;12.77;11.60;;;23.30;81.70;;;;;;3568242;40;20491;-58
2021/05/07 01:37:42;;;;;;;13.87;12.47;;;23.30;81.80;;;;;;3566325;40;20567;-58
2021/05/07 01:40:17;;;;;;;13.47;12.07;;;23.30;81.70;;;;;;3567494;40;20748;-56
2021/05/07 01:42:47;;;;;;;12.93;11.73;;;23.30;81.70;;;;;;3566822;40;20472;-58
2021/05/07 01:45:15;;;;;;;13.40;12.10;;;23.30;81.60;;;;;;3557644;40;20222;-58
2021/05/07 01:47:42;;;;;;;13.40;12.10;;;23.30;81.60;;;;;;3567909;40;20775;-57
2021/05/07 01:50:11;;;;;;;12.60;11.50;;;23.30;81.50;;;;;;3557604;40;20893;-55
2021/05/07 01:52:38;;;;;;;13.33;12.13;;;23.30;81.40;;;;;;3564667;40;20480;-57
2021/05/07 01:55:10;;;;;;;13.80;12.53;;;23.30;81.40;;;;;;3566081;40;20468;-56
2021/05/07 01:57:39;;;;;;;13.00;11.90;;;23.30;81.40;;;;;;3567453;40;20489;-58
2021/05/07 02:00:10;;;;;;;13.37;11.83;;;23.30;81.40;;;;;;3567584;40;20495;-57
2021/05/07 02:02:42;;;;;;;13.00;11.90;;;23.30;81.30;;;;;;3566186;40;20478;-57
2021/05/07 02:05:17;;;;;;;13.50;12.30;;;23.30;81.30;;;;;;3557882;40;20473;-57
2021/05/07 02:07:45;;;;;;;13.50;12.30;;;23.30;81.30;;;;;;3566254;40;20488;-58
2021/05/07 02:10:15;;;;;;;13.70;12.43;;;23.40;81.40;;;;;;3566036;40;20483;-57
2021/05/07 02:12:44;;;;;;;12.90;11.87;;;23.40;81.40;;;;;;3565652;40;20237;-57
2021/05/07 02:15:13;;;;;;;14.63;13.20;;;23.40;81.30;;;;;;3566271;40;20474;-58
2021/05/07 02:17:42;;;;;;;13.33;12.23;;;23.40;81.30;;;;;;3566342;40;20858;-56
2021/05/07 02:20:13;;;;;;;14.30;13.03;;;23.40;81.30;;;;;;3568006;40;20527;-58
2021/05/07 02:22:39;;;;;;;12.43;11.33;;;23.40;81.30;;;;;;3567037;40;20472;-57
2021/05/07 02:25:07;;;;;;;12.60;11.50;;;23.40;81.30;;;;;;3566907;40;20509;-55
2021/05/07 02:27:34;;;;;;;13.47;12.23;;;23.40;81.20;;;;;;3566395;40;20483;-58
2021/05/07 02:30:03;;;;;;;12.50;11.40;;;23.40;81.20;;;;;;3555362;40;20515;-55
2021/05/07 02:32:31;;;;;;;12.77;11.67;;;23.40;81.10;;;;;;3555634;40;20488;-58
2021/05/07 02:34:58;;;;;;;13.57;12.27;;;23.40;81.10;;;;;;3557114;40;20485;-57
2021/05/07 02:37:25;;;;;;;12.10;11.20;;;23.40;81.10;;;;;;3557206;40;20476;-57
2021/05/07 02:39:52;;;;;;;12.70;11.50;;;23.40;81.10;;;;;;3556953;40;20514;-57
2021/05/07 02:42:19;;;;;;;11.97;11.07;;;23.40;81.00;;;;;;3556320;40;20484;-56
2021/05/07 02:44:46;;;;;;;14.60;13.20;;;23.40;81.00;;;;;;3547862;40;20482;-56
2021/05/07 02:47:13;;;;;;;13.87;12.73;;;23.40;81.00;;;;;;3555443;40;20472;-57
2021/05/07 02:49:40;;;;;;;12.53;11.43;;;23.40;81.00;;;;;;3555879;40;20620;-58
2021/05/07 02:52:07;;;;;;;13.50;12.30;;;23.40;81.00;;;;;;3556099;40;20552;-57
2021/05/07 02:54:35;;;;;;;12.43;11.43;;;23.40;81.00;;;;;;3557083;40;20849;-58
2021/05/07 02:57:01;;;;;;;12.40;11.43;;;23.50;81.00;;;;;;3556867;40;21107;-57
2021/05/07 02:59:28;;;;;;;13.30;12.20;;;23.50;81.00;;;;;;3556853;40;20572;-57
2021/05/07 03:01:56;;;;;;;11.90;11.00;;;23.50;80.90;;;;;;3558136;40;20490;-58
2021/05/07 03:04:23;;;;;;;12.57;11.53;;;23.50;80.90;;;;;;3566442;40;20621;-57
2021/05/07 03:06:50;;;;;;;12.50;11.30;;;23.50;80.90;;;;;;3565932;40;20496;-57
2021/05/07 03:09:19;;;;;;;12.03;11.13;;;23.50;80.80;;;;;;3556154;40;20491;-58
2021/05/07 03:11:45;;;;;;;12.73;11.70;;;23.50;80.80;;;;;;3565825;40;20857;-57
2021/05/07 03:14:12;;;;;;;12.50;11.50;;;23.50;80.70;;;;;;3565468;40;20537;-58
2021/05/07 03:16:40;;;;;;;13.30;12.10;;;23.50;80.70;;;;;;3566478;40;20472;-57
2021/05/07 03:19:08;;;;;;;12.50;11.50;;;23.50;80.80;;;;;;3566753;40;20489;-58
2021/05/07 03:21:34;;;;;;;12.20;11.20;;;23.50;80.70;;;;;;3557527;40;20492;-57
2021/05/07 03:24:01;;;;;;;13.00;11.80;;;23.50;80.70;;;;;;3566143;40;20487;-58
2021/05/07 03:26:28;;;;;;;11.83;10.93;;;23.50;80.60;;;;;;3566100;40;20476;-57
2021/05/07 03:28:55;;;;;;;13.18;12.18;;;23.50;80.60;;;;;;3565246;40;20491;-57
2021/05/07 03:31:22;;;;;;;13.83;12.80;;;23.50;80.70;;;;;;3566048;40;20226;-56
2021/05/07 03:33:49;;;;;;;12.98;11.77;;;23.50;80.60;;;;;;3566575;40;20486;-57
2021/05/07 03:36:17;;;;;;;11.87;11.00;;;23.60;80.60;;;;;;3567001;40;20238;-56
2021/05/07 03:38:44;;;;;;;13.93;12.63;;;23.60;80.60;;;;;;3566453;40;20476;-57
2021/05/07 03:41:11;;;;;;;12.30;11.40;;;23.60;80.50;;;;;;3566053;40;21035;-57
2021/05/07 03:43:39;;;;;;;12.03;11.13;;;23.60;80.50;;;;;;3565741;40;20482;-57
2021/05/07 03:46:05;;;;;;;12.70;11.70;;;23.60;80.40;;;;;;3565823;40;20727;-57
2021/05/07 03:48:32;;;;;;;11.63;10.63;;;23.60;80.30;;;;;;3565671;40;20484;-58
2021/05/07 03:51:00;;;;;;;12.90;11.97;;;23.60;80.30;;;;;;3565462;40;20495;-58
2021/05/07 03:53:27;;;;;;;12.83;11.83;;;23.60;80.30;;;;;;3564723;40;20540;-57
2021/05/07 03:55:56;;;;;;;12.88;12.00;;;23.70;80.30;;;;;;3564540;40;20495;-58
2021/05/07 03:58:24;;;;;;;13.00;12.00;;;23.70;80.30;;;;;;3565197;40;20587;-59
2021/05/07 04:00:51;;;;;;;12.10;11.20;;;23.70;80.20;;;;;;3556315;40;20521;-58
2021/05/07 04:03:18;;;;;;;13.23;12.23;;;23.70;80.20;;;;;;3565563;40;20488;-57
2021/05/07 04:05:49;;;;;;;12.53;11.57;;;23.70;80.10;;;;;;3564376;40;20487;-58
2021/05/07 04:08:19;;;;;;;12.40;11.50;;;23.80;80.20;;;;;;3554335;40;20482;-58
2021/05/07 04:10:50;;;;;;;12.77;11.80;;;23.80;80.10;;;;;;3565046;40;20497;-58
2021/05/07 04:13:39;;;;;;;13.17;12.17;;;23.80;80.10;;;;;;3563985;40;20503;-57
2021/05/07 04:16:07;;;;;;;13.77;12.77;;;23.80;80.00;;;;;;3564641;40;20913;-58
2021/05/07 04:18:36;;;;;;;12.37;11.57;;;23.80;79.90;;;;;;3565779;40;20587;-57
2021/05/07 04:21:03;;;;;;;13.20;12.20;;;23.90;80.00;;;;;;3565182;40;20493;-58
2021/05/07 04:23:29;;;;;;;12.73;11.93;;;23.90;80.00;;;;;;3564485;40;20745;-58
2021/05/07 04:25:57;;;;;;;12.60;11.77;;;23.90;79.90;;;;;;3565786;40;20576;-57
2021/05/07 04:28:24;;;;;;;12.70;11.70;;;23.90;79.80;;;;;;3565656;40;20496;-59
2021/05/07 04:30:51;;;;;;;13.10;12.17;;;23.90;79.80;;;;;;3566047;40;20550;-57
2021/05/07 04:33:18;;;;;;;12.47;11.53;;;23.90;79.80;;;;;;3566360;40;20582;-57
2021/05/07 04:35:45;;;;;;;12.33;11.47;;;23.90;79.80;;;;;;3565861;40;20481;-56
2021/05/07 04:38:12;;;;;;;12.43;11.63;;;23.90;79.80;;;;;;3557114;40;20479;-57
2021/05/07 04:40:39;;;;;;;13.10;12.20;;;23.90;79.70;;;;;;3565857;40;20487;-57
2021/05/07 04:43:07;;;;;;;12.30;11.30;;;24.00;79.70;;;;;;3564570;40;20495;-58
2021/05/07 04:45:34;;;;;;;12.17;11.27;;;24.00;79.70;;;;;;3564450;40;20906;-58
2021/05/07 04:48:03;;;;;;;11.15;10.35;;;24.00;79.60;;;;;;3564029;40;21014;-57
2021/05/07 04:50:29;;;;;;;13.03;12.13;;;24.00;79.60;;;;;;3562527;40;20227;-57
2021/05/07 04:52:57;;;;;;;13.30;12.07;;;24.00;79.40;;;;;;3561964;40;20486;-58
2021/05/07 04:55:24;;;;;;;12.37;11.47;;;24.00;79.40;;;;;;3563538;40;20490;-57
2021/05/07 04:57:52;;;;;;;12.90;11.90;;;24.10;79.50;;;;;;3561195;40;20501;-57
2021/05/07 05:00:20;;;;;;;11.87;11.03;;;24.10;79.40;;;;;;3560656;40;20941;-57
2021/05/07 05:02:48;;;;;;;11.70;10.80;;;24.10;79.40;;;;;;3552434;40;21083;-57
2021/05/07 05:05:17;;;;;;;12.97;11.93;;;24.10;79.30;;;;;;3562673;40;20815;-57
2021/05/07 05:07:48;;;;;;;11.77;10.90;;;24.10;79.30;;;;;;3561003;40;20571;-56
2021/05/07 05:10:15;;;;;;;12.73;11.70;;;24.10;79.30;;;;;;3560500;40;20481;-58
2021/05/07 05:12:41;;;;;;;12.00;11.00;;;24.10;79.30;;;;;;3561045;40;20912;-58
2021/05/07 05:15:09;;;;;;;12.17;11.37;;;24.10;79.20;;;;;;3559776;40;20488;-58
2021/05/07 05:17:37;;;;;;;12.37;11.37;;;24.10;79.20;;;;;;3559386;40;20887;-57
2021/05/07 05:20:06;;;;;;;11.60;10.80;;;24.10;79.20;;;;;;3552042;40;20549;-58
2021/05/07 05:22:34;;;;;;;11.87;11.07;;;24.10;79.20;;;;;;3561126;40;20538;-58
2021/05/07 05:25:04;;;;;;;12.20;11.30;;;24.20;79.20;;;;;;3560213;40;20489;-58
2021/05/07 05:27:33;;;;;;;11.63;10.83;;;24.20;79.20;;;;;;3558607;40;20489;-57
2021/05/07 05:30:00;;;;;;;12.07;11.17;;;24.20;79.20;;;;;;3558042;40;20491;-57
2021/05/07 05:32:27;;;;;;;8.37;7.97;;;24.20;79.10;;;;;;3558798;40;20878;-57
2021/05/07 05:34:54;;;;;;;7.70;7.30;;;24.10;67.90;;;;;;3559251;40;20508;-57
2021/05/07 05:37:21;;;;;;;7.50;7.20;;;23.90;62.40;;;;;;3558689;40;20477;-58
2021/05/07 05:39:48;;;;;;;7.80;7.60;;;23.60;59.80;;;;;;3559810;40;20484;-57
2021/05/07 05:42:14;;;;;;;8.63;8.13;;;23.20;60.20;;;;;;3560117;40;20476;-57
2021/05/07 05:44:42;;;;;;;9.10;8.70;;;22.90;59.30;;;;;;3558381;40;20479;-57
2021/05/07 05:47:08;;;;;;;7.77;7.47;;;22.60;60.20;;;;;;3557366;40;20572;-58
2021/05/07 05:49:35;;;;;;;7.03;6.83;;;22.40;60.40;;;;;;3555081;40;20482;-57
2021/05/07 05:52:03;;;;;;;7.60;7.30;;;22.20;60.50;;;;;;3557618;40;20479;-57
2021/05/07 05:54:29;;;;;;;8.10;7.70;;;22.00;59.90;;;;;;3556663;40;20492;-57
2021/05/07 05:56:57;;;;;;;8.17;7.77;;;21.80;60.30;;;;;;3555394;40;20485;-57
2021/05/07 05:59:24;;;;;;;7.30;7.10;;;21.70;60.20;;;;;;3555139;40;20568;-57
2021/05/07 06:01:52;;;;;;;8.23;7.93;;;21.50;59.70;;;;;;3553467;40;20493;-58
2021/05/07 06:04:18;;;;;;;7.30;7.03;;;21.40;60.00;;;;;;3552680;40;20858;-58
2021/05/07 06:06:46;;;;;;;7.87;7.57;;;21.20;61.00;;;;;;3554852;40;20485;-57
2021/05/07 06:09:14;;;;;;;7.20;7.00;;;21.10;61.60;;;;;;3543466;40;20486;-57
2021/05/07 06:11:40;;;;;;;7.57;7.27;;;21.10;61.10;;;;;;3552889;40;20559;-57
2021/05/07 06:14:08;;;;;;;7.63;7.33;;;21.00;60.70;;;;;;3550057;40;20799;-53
2021/05/07 06:16:35;;;;;;;7.50;7.20;;;21.00;60.80;;;;;;3552201;40;20480;-57
2021/05/07 06:19:05;;;;;;;7.57;7.27;;;20.90;60.70;;;;;;3554645;40;20525;-58
2021/05/07 06:21:32;;;;;;;7.87;7.50;;;20.80;61.30;;;;;;3543724;40;20488;-57
2021/05/07 06:23:58;;;;;;;7.53;7.20;;;20.80;61.70;;;;;;3550655;40;20476;-57
2021/05/07 06:26:25;;;;;;;7.53;7.23;;;20.70;61.80;;;;;;3551564;40;20587;-57
2021/05/07 06:28:52;;;;;;;8.00;7.60;;;20.70;62.50;;;;;;3553188;40;20469;-58
2021/05/07 06:31:20;;;;;;;8.20;7.80;;;20.70;61.40;;;;;;3551225;40;20524;-59
2021/05/07 06:33:46;;;;;;;7.60;7.30;;;20.70;61.80;;;;;;3552276;40;20508;-58
2021/05/07 06:36:15;;;;;;;7.50;7.20;;;20.70;61.80;;;;;;3551443;40;20494;-58
2021/05/07 06:38:42;;;;;;;7.57;7.27;;;20.70;61.90;;;;;;3552588;40;20491;-58
2021/05/07 06:41:11;;;;;;;8.43;7.90;;;20.70;62.40;;;;;;3553015;40;21108;-58
2021/05/07 06:43:39;;;;;;;8.63;8.23;;;20.70;61.90;;;;;;3552271;40;20496;-59
2021/05/07 06:46:05;;;;;;;8.23;7.82;;;20.70;61.80;;;;;;3550820;40;20483;-58
2021/05/07 06:48:33;;;;;;;8.25;7.85;;;20.60;62.00;;;;;;3551319;40;20240;-58
2021/05/07 06:51:00;;;;;;;7.50;7.20;;;20.60;62.70;;;;;;3550398;40;20231;-59
2021/05/07 06:53:27;;;;;;;8.13;7.80;;;20.60;62.70;;;;;;3549065;40;20500;-58
2021/05/07 06:55:54;;;;;;;7.30;7.10;;;20.60;62.70;;;;;;3551249;40;20498;-59
2021/05/07 06:58:22;;;;;;;7.73;7.40;;;20.70;62.30;;;;;;3551376;40;20810;-57
2021/05/07 07:00:50;;;;;;;8.20;7.80;;;20.70;62.20;;;;;;3551029;40;20496;-58
2021/05/07 07:03:16;;;;;;;8.43;8.03;;;20.70;62.10;;;;;;3546687;40;20493;-57
2021/05/07 07:05:43;;;;;;;7.90;7.60;;;20.70;62.10;;;;;;3550492;40;20480;-58
2021/05/07 07:08:09;;;;;;;8.23;7.73;;;20.70;61.70;;;;;;3552327;40;20865;-58
2021/05/07 07:10:37;;;;;;;8.10;7.70;;;20.60;61.90;;;;;;3552015;40;20497;-57
2021/05/07 07:13:03;;;;;;;8.67;8.27;;;20.70;62.80;;;;;;3551880;40;20506;-58
2021/05/07 07:15:30;;;;;;;8.07;7.77;;;20.70;62.60;;;;;;3553472;40;20518;-58
2021/05/07 07:17:57;;;;;;;8.23;7.83;;;20.60;62.30;;;;;;3551843;40;20579;-59
2021/05/07 07:20:24;;;;;;;7.50;7.20;;;20.70;62.40;;;;;;3551844;40;20531;-58
2021/05/07 07:22:51;;;;;;;8.70;8.20;;;20.70;62.40;;;;;;3551866;40;20483;-58
2021/05/07 07:25:18;;;;;;;6.77;6.57;;;20.70;62.30;;;;;;3546411;40;21061;-52
2021/05/07 07:27:45;;;;;;;6.90;6.60;;;20.80;63.70;;;;;;3543580;40;20484;-55
2021/05/07 07:30:14;;;;;;;7.33;7.10;;;21.00;65.70;;;;;;3549347;40;20500;-53
2021/05/07 07:32:40;;;;;;;6.87;6.57;;;21.30;66.80;;;;;;3549573;40;20556;-52
2021/05/07 07:35:09;;;;;;;7.77;7.17;;;21.60;67.50;;;;;;3550763;40;20911;-52
2021/05/07 07:37:36;;;;;;;8.80;8.00;;;21.80;67.80;;;;;;3550893;40;20483;-53
2021/05/07 07:40:03;;;;;;;7.80;7.20;;;22.00;68.20;;;;;;3551502;40;20490;-55
2021/05/07 07:42:30;;;;;;;7.27;6.57;;;22.30;68.50;;;;;;3550944;40;20483;-51
2021/05/07 07:44:56;;;;;;;7.23;6.93;;;22.50;68.50;;;;;;3548120;40;20498;-51
2021/05/07 07:47:23;;;;;;;7.87;7.20;;;22.60;68.40;;;;;;3548838;40;20585;-54
2021/05/07 07:49:50;;;;;;;7.33;7.03;;;22.80;68.40;;;;;;3550020;40;20479;-52
2021/05/07 07:52:17;;;;;;;7.70;6.90;;;22.90;68.30;;;;;;3549919;40;20486;-54
2021/05/07 07:54:44;;;;;;;6.60;6.30;;;23.00;68.20;;;;;;3550069;40;20483;-53
2021/05/07 07:57:11;;;;;;;6.67;6.37;;;23.10;68.20;;;;;;3550514;40;21371;-52
2021/05/07 07:59:38;;;;;;;7.17;6.87;;;23.20;68.10;;;;;;3549186;40;20489;-55
2021/05/07 08:02:06;;;;;;;7.13;6.83;;;23.30;68.10;;;;;;3548836;40;20792;-53
2021/05/07 08:04:32;;;;;;;6.90;6.60;;;23.50;68.20;;;;;;3549627;40;20505;-55
2021/05/07 08:07:00;;;;;;;7.93;7.43;;;23.50;68.10;;;;;;3549346;40;20563;-54
2021/05/07 08:09:27;;;;;;;8.20;7.30;;;23.60;68.10;;;;;;3549631;40;20975;-54
2021/05/07 08:11:54;;;;;;;8.10;7.17;;;23.60;68.10;;;;;;3534257;40;20493;-55
2021/05/07 08:14:22;;;;;;;8.00;7.30;;;23.70;68.10;;;;;;3547506;40;20983;-53
2021/05/07 08:16:48;;;;;;;8.30;7.70;;;23.80;68.20;;;;;;3549131;40;20490;-54
2021/05/07 08:19:15;;;;;;;12.30;7.67;;;23.80;68.30;;;;;;3547569;40;20685;-52
2021/05/07 08:21:42;;;;;;;9.80;7.53;;;23.90;68.50;;;;;;3551152;40;20491;-53
2021/05/07 08:24:10;;;;;;;7.63;7.20;;;23.90;68.50;;;;;;3550747;40;20501;-53
2021/05/07 08:26:38;;;;;;;7.70;7.30;;;23.90;68.50;;;;;;3548588;40;20493;-51
2021/05/07 08:29:04;;;;;;;7.87;7.30;;;24.00;68.50;;;;;;3548749;40;20753;-55
2021/05/07 08:31:31;;;;;;;8.00;7.43;;;24.00;68.50;;;;;;3546790;40;20794;-51
2021/05/07 08:33:59;;;;;;;8.20;7.28;;;24.00;68.60;;;;;;3548893;40;20246;-53
2021/05/07 08:36:28;;;;;;;7.10;6.60;;;24.10;68.70;;;;;;3550732;40;20616;-53
2021/05/07 08:38:55;;;;;;;8.53;7.70;;;24.10;68.50;;;;;;3549790;40;20492;-54
2021/05/07 08:41:22;;;;;;;7.40;6.90;;;24.20;68.60;;;;;;3549227;40;21076;-53
2021/05/07 08:43:52;;;;;;;7.30;6.80;;;24.20;68.60;;;;;;3547741;40;20511;-51
2021/05/07 08:46:19;;;;;;;7.00;5.87;;;24.20;68.70;;;;;;3551005;40;20499;-51
2021/05/07 08:48:47;;;;;;;7.70;7.20;;;24.20;68.80;;;;;;3547271;40;20583;-54
2021/05/07 08:51:13;;;;;;;7.80;7.20;;;24.20;68.90;;;;;;3550723;40;20943;-53
2021/05/07 08:53:41;;;;;;;7.53;7.13;;;24.20;68.90;;;;;;3548563;40;20497;-55
2021/05/07 08:56:09;;;;;;;7.30;7.00;;;24.20;68.90;;;;;;3549717;40;20503;-51
2021/05/07 08:58:36;;;;;;;7.20;6.80;;;24.20;69.00;;;;;;3549337;40;21365;-54
2021/05/07 09:01:05;;;;;;;7.73;7.30;;;24.20;69.10;;;;;;3548167;40;20243;-52
2021/05/07 09:03:38;;;;;;;8.10;6.70;;;24.30;69.30;;;;;;3547655;40;20496;-51
2021/05/07 09:06:15;;;;;;;7.10;6.70;;;24.30;69.30;;;;;;3547103;40;20510;-53
2021/05/07 09:08:41;;;;;;;7.20;6.80;;;24.30;69.30;;;;;;3546452;40;21142;-53
2021/05/07 09:11:08;;;;;;;7.50;7.00;;;24.30;69.40;;;;;;3549561;40;20490;-54
2021/05/07 09:13:34;;;;;;;6.93;6.53;;;24.30;69.40;;;;;;3551495;40;20564;-52
2021/05/07 09:16:06;;;;;;;6.60;6.30;;;24.30;69.50;;;;;;3551755;40;20482;-53
2021/05/07 09:18:42;;;;;;;7.43;6.93;;;24.40;69.80;;;;;;3550911;40;20489;-50
2021/05/07 09:21:08;;;;;;;6.53;6.23;;;24.30;69.80;;;;;;3541216;40;20562;-54
2021/05/07 09:23:40;;;;;;;7.57;6.90;;;24.40;69.90;;;;;;3548708;40;20486;-50
2021/05/07 09:26:07;;;;;;;7.43;6.83;;;24.40;70.10;;;;;;3550834;40;20227;-51
2021/05/07 09:28:36;;;;;;;7.40;7.00;;;24.40;70.20;;;;;;3542453;40;20487;-52
2021/05/07 09:31:12;;;;;;;7.63;7.23;;;24.40;70.30;;;;;;3539550;40;20498;-51
2021/05/07 09:33:42;;;;;;;7.63;7.00;;;24.40;70.50;;;;;;3549072;40;20473;-50
2021/05/07 09:36:10;;;;;;;7.90;7.22;;;24.40;70.60;;;;;;3548253;40;20490;-47
2021/05/07 09:38:37;;;;;;;7.47;6.87;;;24.40;70.60;;;;;;3548561;40;20664;-50
2021/05/07 09:41:05;;;;;;;13.23;7.60;;;24.40;70.60;;;;;;3547430;40;20497;-51
2021/05/07 09:43:31;;;;;;;8.27;7.57;;;24.40;70.60;;;;;;3535212;40;20477;-50
2021/05/07 09:45:58;;;;;;;6.87;6.47;;;24.40;70.70;;;;;;3533746;40;20666;-50
2021/05/07 09:48:28;;;;;;;7.40;6.80;;;24.40;70.80;;;;;;3532333;40;20749;-49
2021/05/07 09:50:57;;;;;;;7.67;6.67;;;24.40;70.90;;;;;;3533148;40;20500;-50
2021/05/07 09:53:26;;;;;;;7.97;7.40;;;24.40;71.00;;;;;;3532553;40;20502;-49
2021/05/07 09:55:56;;;;;;;7.80;7.07;;;24.40;71.00;;;;;;3546836;40;20611;-52
2021/05/07 09:58:24;;;;;;;6.90;6.60;;;24.30;71.00;;;;;;3549435;40;20507;-49
2021/05/07 10:00:51;;;;;;;7.67;7.17;;;24.30;71.00;;;;;;3536273;40;20495;-51
2021/05/07 10:03:17;;;;;;;7.50;7.00;;;24.30;71.10;;;;;;3543307;40;20512;-49
2021/05/07 10:05:45;;;;;;;6.87;6.43;;;24.30;71.10;;;;;;3544168;40;20491;-49
2021/05/07 10:08:12;;;;;;;7.67;7.17;;;24.30;71.20;;;;;;3548740;40;20490;-50
2021/05/07 10:10:42;;;;;;;8.90;6.87;;;24.30;71.50;;;;;;3549338;40;20486;-50
2021/05/07 10:13:12;;;;;;;7.70;6.90;;;24.30;71.80;;;;;;3549761;40;20486;-50
2021/05/07 10:15:41;;;;;;;9.57;7.63;;;24.30;72.10;;;;;;3547065;40;20482;-50
2021/05/07 10:18:10;;;;;;;10.63;7.97;;;24.30;72.20;;;;;;3550145;40;20768;-50
2021/05/07 10:20:38;;;;;;;8.80;8.05;;;24.30;72.60;;;;;;3548078;40;20508;-50
2021/05/07 10:23:15;;;;;;;8.47;7.77;;;24.30;72.80;;;;;;3538124;40;20260;-51
2021/05/07 10:25:53;;;;;;;10.37;8.63;;;24.30;72.90;;;;;;3551762;40;20534;-50
2021/05/07 10:28:20;;;;;;;7.70;7.20;;;24.30;73.10;;;;;;3548516;40;20492;-50
2021/05/07 10:30:47;;;;;;;8.63;7.70;;;24.20;73.00;;;;;;3550126;40;20483;-52
2021/05/07 10:33:16;;;;;;;8.43;7.63;;;24.20;73.20;;;;;;3549844;40;20320;-50
2021/05/07 10:35:47;;;;;;;8.13;7.23;;;24.20;73.20;;;;;;3548910;40;20497;-49
2021/05/07 10:38:16;;;;;;;9.53;7.57;;;24.20;73.40;;;;;;3550639;40;20766;-52
2021/05/07 10:40:45;;;;;;;8.20;7.23;;;24.20;73.40;;;;;;3551221;40;20496;-50
2021/05/07 10:43:12;;;;;;;9.33;7.70;;;24.20;73.50;;;;;;3551213;40;20483;-49
2021/05/07 10:45:53;;;;;;;7.68;7.18;;;24.20;73.50;;;;;;3552713;40;20502;-49
2021/05/07 10:48:25;;;;;;;9.00;7.50;;;24.20;73.60;;;;;;3551009;40;20731;-50
2021/05/07 10:50:57;;;;;;;10.30;7.70;;;24.20;73.60;;;;;;3552419;40;20487;-50
2021/05/07 10:53:35;;;;;;;8.70;7.47;;;24.20;73.60;;;;;;3551613;40;20486;-48
2021/05/07 10:56:17;;;;;;;8.00;7.40;;;24.20;73.70;;;;;;3551830;40;20500;-51
2021/05/07 10:58:45;;;;;;;9.40;7.87;;;24.20;73.70;;;;;;3551003;40;21000;-50
2021/05/07 11:01:24;;;;;;;8.53;7.93;;;24.20;73.70;;;;;;3543642;40;20962;-51
2021/05/07 11:04:06;;;;;;;8.40;7.60;;;24.20;73.80;;;;;;3549735;40;20505;-50
2021/05/07 11:06:35;;;;;;;9.60;8.70;;;24.20;73.90;;;;;;3551677;40;21135;-50
2021/05/07 11:09:28;;;;;;;9.73;8.53;;;24.20;74.00;;;;;;3549575;40;20489;-51
2021/05/07 11:12:02;;;;;;;8.87;8.17;;;24.10;73.90;;;;;;3543453;40;20496;-52
2021/05/07 11:14:33;;;;;;;14.93;12.40;;;24.10;74.00;;;;;;3552173;40;20494;-50
2021/05/07 11:17:03;;;;;;;26.23;18.10;;;24.10;74.10;;;;;;3550227;40;20526;-52
2021/05/07 11:19:32;;;;;;;39.23;22.30;;;24.10;74.40;;;;;;3552417;40;20484;-50
2021/05/07 11:22:03;;;;;;;35.03;24.40;;;24.10;74.60;;;;;;3552211;40;20965;-50
2021/05/07 11:24:32;;;;;;;37.83;24.80;;;24.20;75.20;;;;;;3544033;40;20505;-51
2021/05/07 11:27:02;;;;;;;36.33;24.80;;;24.10;75.40;;;;;;3551847;40;20576;-50
2021/05/07 11:29:32;;;;;;;40.67;23.63;;;24.20;75.90;;;;;;3554218;40;20521;-52
2021/05/07 11:32:11;;;;;;;38.37;24.90;;;24.10;76.00;;;;;;3553019;40;20518;-50
2021/05/07 11:34:38;;;;;;;34.80;24.50;;;24.10;76.10;;;;;;3553713;40;20490;-50
2021/05/07 11:37:05;;;;;;;37.60;23.53;;;24.10;76.10;;;;;;3555162;40;20498;-51
2021/05/07 11:39:33;;;;;;;37.20;21.93;;;24.10;76.30;;;;;;3553757;40;20502;-50
2021/05/07 11:42:00;;;;;;;27.60;21.50;;;24.10;76.30;;;;;;3553878;40;20499;-50
2021/05/07 11:44:27;;;;;;;33.13;21.80;;;24.10;76.20;;;;;;3554622;40;21144;-51
2021/05/07 11:47:08;;;;;;;37.13;21.73;;;24.10;76.10;;;;;;3554420;40;21167;-50
2021/05/07 11:49:36;;;;;;;32.70;20.57;;;24.10;76.00;;;;;;3554871;40;20490;-50
2021/05/07 11:52:02;;;;;;;34.60;20.33;;;24.00;75.70;;;;;;3554605;40;20485;-51
2021/05/07 11:54:42;;;;;;;31.07;20.43;;;24.00;75.50;;;;;;3555969;40;20870;-50
2021/05/07 11:57:10;;;;;;;37.35;19.75;;;24.10;75.60;;;;;;3555913;40;20509;-51
2021/05/07 11:59:47;;;;;;;23.10;19.10;;;24.00;75.40;;;;;;3555343;40;20322;-49
2021/05/07 12:02:23;;;;;;;23.17;17.50;;;24.00;75.20;;;;;;3554948;40;20501;-49
2021/05/07 12:04:50;;;;;;;26.93;16.73;;;24.00;74.80;;;;;;3554596;40;20558;-50
2021/05/07 12:07:27;;;;;;;50.77;17.67;;;24.00;74.60;;;;;;3555613;40;20489;-50
2021/05/07 12:09:55;;;;;;;26.07;17.63;;;24.00;74.40;;;;;;3556828;40;21021;-50
2021/05/07 12:12:22;;;;;;;25.10;16.17;;;23.90;74.10;;;;;;3555948;40;20506;-51
2021/05/07 12:14:50;;;;;;;19.13;15.30;;;23.90;74.00;;;;;;3556633;40;20495;-51
2021/05/07 12:17:18;;;;;;;19.60;16.37;;;23.90;74.70;;;;;;3556474;40;20238;-50
2021/05/07 12:19:57;;;;;;;21.90;15.33;;;23.90;74.10;;;;;;3556255;40;21195;-50
2021/05/07 12:22:24;;;;;;;12.10;11.03;;;23.90;74.00;;;;;;3557713;40;20490;-53
2021/05/07 12:24:51;;;;;;;21.00;13.93;;;23.90;62.70;;;;;;3556041;40;20877;-50
2021/05/07 12:27:27;;;;;;;25.20;15.30;;;23.80;66.20;;;;;;3556406;40;20587;-52
2021/05/07 12:29:54;;;;;;;18.47;13.80;;;23.80;70.30;;;;;;3556156;40;20505;-51
2021/05/07 12:32:23;;;;;;;20.93;14.70;;;23.80;71.40;;;;;;3556445;40;20488;-50
2021/05/07 12:35:00;;;;;;;15.53;13.33;;;23.80;71.80;;;;;;3558022;40;20482;-51
2021/05/07 12:37:38;;;;;;;13.97;12.63;;;23.80;71.90;;;;;;3556135;40;20493;-50
2021/05/07 12:40:06;;;;;;;19.83;13.73;;;23.80;72.00;;;;;;3556159;40;20589;-52
2021/05/07 12:42:33;;;;;;;15.83;13.60;;;23.80;72.00;;;;;;3549364;40;20488;-50